createdAt,value
2022-10-18T00:00:01.418Z,145.998
2022-10-18T00:05:01.371Z,145.899
2022-10-18T00:10:01.439Z,235.773
2022-10-18T00:15:01.559Z,261.649
2022-10-18T00:20:01.564Z,256.176
2022-10-18T00:25:01.458Z,206.751
2022-10-18T00:30:01.503Z,170.121
2022-10-18T00:35:01.467Z,169.451
2022-10-18T00:40:01.772Z,169.119
2022-10-18T00:45:01.793Z,168.718
2022-10-18T00:50:01.727Z,167.95600000000002
2022-10-18T00:55:01.504Z,669.2230000000001
2022-10-18T01:00:01.498Z,2533.7110000000002
2022-10-18T01:05:01.546Z,2552.111
2022-10-18T01:10:01.583Z,2672.181
2022-10-18T01:15:01.569Z,1704.105
2022-10-18T01:20:01.705Z,145.275
2022-10-18T01:30:01.606Z,154.25300000000001
2022-10-18T01:35:01.543Z,172.577
2022-10-18T01:40:01.622Z,288.285
2022-10-18T01:45:01.608Z,292.005
2022-10-18T01:50:01.706Z,290.646
2022-10-18T01:55:01.740Z,221.96800000000002
2022-10-18T02:00:01.569Z,176.638
2022-10-18T02:05:01.528Z,2502.231
2022-10-18T02:10:01.657Z,7633.8240000000005
2022-10-18T02:15:01.560Z,7624.843
2022-10-18T02:20:01.629Z,8164.358
2022-10-18T02:25:01.777Z,8805.717
2022-10-18T02:30:01.615Z,8178.418000000001
2022-10-18T02:35:01.688Z,7887.894
2022-10-18T02:40:01.691Z,5587.36
2022-10-18T02:45:01.715Z,4220.857
2022-10-18T02:50:01.636Z,3731.77
2022-10-18T02:55:01.755Z,3483.637
2022-10-18T03:00:01.768Z,1549.992
2022-10-18T03:05:01.605Z,170.084
2022-10-18T03:10:01.658Z,257.907
2022-10-18T03:15:01.696Z,283.895
2022-10-18T03:20:01.610Z,274.696
2022-10-18T03:25:01.713Z,218.779
2022-10-18T03:30:01.744Z,144.052
2022-10-18T03:35:01.655Z,143.464
2022-10-18T03:40:01.755Z,143.762
2022-10-18T03:45:01.751Z,1601.351
2022-10-18T03:50:01.681Z,2405.712
2022-10-18T03:55:01.767Z,2488.63
2022-10-18T04:00:01.813Z,447.132
2022-10-18T04:05:01.655Z,264.064
2022-10-18T04:10:01.755Z,256.286
2022-10-18T04:15:01.643Z,180.72400000000002
2022-10-18T04:20:01.645Z,182.79500000000002
2022-10-18T04:25:01.744Z,181.347
2022-10-18T04:30:01.997Z,173.071
2022-10-18T04:35:01.713Z,171.912
2022-10-18T04:40:01.782Z,242.811
2022-10-18T04:45:01.805Z,289.546
2022-10-18T04:50:01.782Z,2265.733
2022-10-18T04:55:01.818Z,2495.966
2022-10-18T05:00:01.683Z,2454.445
2022-10-18T05:05:01.696Z,3031.161
2022-10-18T05:10:01.883Z,1160.496
2022-10-18T05:15:01.900Z,911.0690000000001
2022-10-18T05:20:01.762Z,632.429
2022-10-18T05:25:02.025Z,2771.1440000000002
2022-10-18T05:30:04.491Z,1806.121
2022-10-18T05:35:01.746Z,502.523
2022-10-18T05:40:01.845Z,425.397
2022-10-18T05:45:01.799Z,361.98900000000003
2022-10-18T05:50:01.742Z,363.81
2022-10-18T05:55:01.956Z,1073.441
2022-10-18T06:00:01.791Z,409.14
2022-10-18T06:05:01.752Z,944.869
2022-10-18T06:10:01.909Z,2652.822
2022-10-18T06:15:01.874Z,2703.5170000000003
2022-10-18T06:20:01.817Z,3058.707
2022-10-18T06:25:02.018Z,1558.886
2022-10-18T06:30:01.878Z,330.261
2022-10-18T06:35:01.794Z,330.747
2022-10-18T06:40:01.867Z,334.536
2022-10-18T06:45:01.867Z,358.834
2022-10-18T06:50:01.896Z,337.197
2022-10-18T06:55:04.175Z,409.88800000000003
2022-10-18T07:00:01.851Z,416.425
2022-10-18T07:05:01.867Z,408.008
2022-10-18T07:10:01.899Z,353.81
2022-10-18T07:15:04.457Z,302.14
2022-10-18T07:20:01.953Z,889.532
2022-10-18T07:25:01.847Z,2520.764
2022-10-18T07:30:01.836Z,2449.927
2022-10-18T07:35:01.881Z,2291.546
2022-10-18T07:40:01.913Z,1094.1580000000001
2022-10-18T07:45:01.998Z,2651.503
2022-10-18T07:50:01.993Z,2663.469
2022-10-18T07:55:01.863Z,2972.6240000000003
2022-10-18T08:00:01.870Z,795.758
2022-10-18T08:05:01.992Z,256.52
2022-10-18T08:10:01.953Z,248.15
2022-10-18T08:15:01.960Z,276.026
2022-10-18T08:20:12.546Z,604.714
2022-10-18T08:25:01.967Z,353.274
2022-10-18T08:30:01.938Z,333.654
2022-10-18T08:35:03.222Z,330.562
2022-10-18T08:40:01.988Z,243.647
2022-10-18T08:45:05.057Z,221.326
2022-10-18T08:50:02.036Z,230.447
2022-10-18T08:55:01.923Z,162.367
2022-10-18T09:00:01.880Z,162.147
2022-10-18T09:05:01.860Z,202.899
2022-10-18T09:10:02.035Z,295.248
2022-10-18T09:15:02.064Z,285.732
2022-10-18T09:20:02.074Z,278.089
2022-10-18T09:25:02.027Z,179.839
2022-10-18T09:30:01.979Z,183.57
2022-10-18T09:35:01.963Z,182.529
2022-10-18T09:40:02.055Z,1489.204
2022-10-18T09:45:02.194Z,2409.703
2022-10-18T09:50:02.102Z,2556.753
2022-10-18T09:55:01.941Z,2432.705
2022-10-18T10:00:02.003Z,288.808
2022-10-18T10:05:02.070Z,240.106
2022-10-18T10:10:02.011Z,177.519
2022-10-18T10:15:02.034Z,180.392
2022-10-18T10:20:02.142Z,168.702
2022-10-18T10:25:02.108Z,158.905
2022-10-18T10:30:06.691Z,163.173
2022-10-18T10:35:02.068Z,256.347
2022-10-18T10:40:18.129Z,276.935
2022-10-18T10:45:02.195Z,270.951
2022-10-18T10:50:02.176Z,212.552
2022-10-18T10:55:06.046Z,177.52100000000002
2022-10-18T11:00:02.134Z,182.881
2022-10-18T11:05:02.029Z,182.823
2022-10-18T11:10:02.165Z,174.792
2022-10-18T11:15:02.045Z,174.565
2022-10-18T11:20:02.138Z,537.118
2022-10-18T11:25:02.061Z,1663.8990000000001
2022-10-18T11:30:02.043Z,1087.38
2022-10-18T11:35:02.098Z,341.71500000000003
2022-10-18T11:40:02.261Z,344.435
2022-10-18T11:45:02.219Z,238.672
2022-10-18T11:50:02.186Z,197.195
2022-10-18T11:55:02.159Z,710.746
2022-10-18T12:00:02.094Z,2477.659
2022-10-18T12:05:24.443Z,2599.577
2022-10-18T12:10:02.162Z,3103.65
2022-10-18T12:15:02.175Z,1753.583
2022-10-18T12:20:02.227Z,267.096
2022-10-18T12:25:02.076Z,259.153
2022-10-18T12:30:02.069Z,248.288
2022-10-18T12:35:02.133Z,247.499
2022-10-18T12:40:10.455Z,248.14600000000002
2022-10-18T12:45:02.324Z,285.338
2022-10-18T12:50:02.079Z,368.11400000000003
2022-10-18T12:55:02.122Z,357.161
2022-10-18T13:00:02.144Z,340.17900000000003
2022-10-18T13:05:02.276Z,244.041
2022-10-18T13:10:02.283Z,784.318
2022-10-18T13:15:07.275Z,311.945
2022-10-18T13:20:24.395Z,313.754
2022-10-18T13:25:02.118Z,338.322
2022-10-18T13:30:02.134Z,408.273
2022-10-18T13:35:02.226Z,453.132
2022-10-18T13:40:02.362Z,443.492
2022-10-18T13:45:02.467Z,401.394
2022-10-18T13:50:02.158Z,320.06
2022-10-18T13:55:02.226Z,274.728
2022-10-18T14:00:02.197Z,277.19100000000003
2022-10-18T14:05:16.843Z,276.021
2022-10-18T14:10:04.276Z,272.074
2022-10-18T14:15:02.162Z,360.204
2022-10-18T14:20:02.275Z,384.67900000000003
2022-10-18T14:25:02.250Z,359.35200000000003
2022-10-18T14:30:02.230Z,242.791
2022-10-18T14:35:27.537Z,217.744
2022-10-18T14:40:02.476Z,262.76300000000003
2022-10-18T14:45:02.378Z,326.651
2022-10-18T14:50:02.294Z,2305.717
2022-10-18T14:55:02.213Z,2572.359
2022-10-18T15:00:02.330Z,2946.288
2022-10-18T15:05:02.309Z,2800.9210000000003
2022-10-18T15:10:02.516Z,663.326
2022-10-18T15:15:02.274Z,2058.6040000000003
2022-10-18T15:20:03.557Z,1432.2740000000001
2022-10-18T15:25:02.229Z,1686.854
2022-10-18T15:30:02.291Z,721.301
2022-10-18T15:35:02.338Z,343.257
2022-10-18T15:40:02.488Z,1002.174
2022-10-18T15:45:02.391Z,482.58500000000004
2022-10-18T15:50:02.234Z,516.037
2022-10-18T15:55:02.298Z,476.879
2022-10-18T16:00:02.268Z,364.068
2022-10-18T16:05:02.475Z,344.866
2022-10-18T16:10:02.528Z,346.21
2022-10-18T16:15:02.285Z,341.527
2022-10-18T16:20:02.270Z,326.354
2022-10-18T16:25:02.426Z,374.494
2022-10-18T16:30:03.448Z,401.394
2022-10-18T16:35:02.414Z,2002.7
2022-10-18T16:40:02.525Z,2539.28
2022-10-18T16:45:02.410Z,2502.498
2022-10-18T16:50:05.541Z,2918.5840000000003
2022-10-18T16:55:02.313Z,1978.9
2022-10-18T17:00:02.332Z,313.923
2022-10-18T17:05:02.495Z,311.936
2022-10-18T17:10:02.569Z,454.967
2022-10-18T17:15:02.338Z,470.474
2022-10-18T17:20:02.362Z,467.285
2022-10-18T17:25:02.351Z,390.41
2022-10-18T17:30:02.402Z,360.392
2022-10-18T17:35:02.476Z,2724.029
2022-10-18T17:40:02.573Z,1864.203
2022-10-18T17:45:02.482Z,791.721
2022-10-18T17:50:02.451Z,284.259
2022-10-18T17:55:02.397Z,1114.7
2022-10-18T18:00:02.425Z,395.454
2022-10-18T18:05:02.461Z,443.067
2022-10-18T18:10:02.638Z,1245.455
2022-10-18T18:15:02.360Z,2545.282
2022-10-18T18:20:02.412Z,2866.189
2022-10-18T18:25:02.396Z,3106.718
2022-10-18T18:30:02.386Z,1676.2160000000001
2022-10-18T18:35:02.386Z,360.084
2022-10-18T18:40:02.639Z,909.061
2022-10-18T18:45:02.663Z,2625.234
2022-10-18T18:50:02.457Z,1258.416
2022-10-18T18:55:02.444Z,343.983
2022-10-18T19:00:02.449Z,335.401
2022-10-18T19:05:02.496Z,336.704
2022-10-18T19:10:02.735Z,344.045
2022-10-18T19:15:02.492Z,3294.783
2022-10-18T19:20:02.456Z,2616.32
2022-10-18T19:25:02.434Z,439.348
2022-10-18T19:30:02.444Z,431.75
2022-10-18T19:35:02.538Z,1301.237
2022-10-18T19:40:02.679Z,2567.3830000000003
2022-10-18T19:45:02.542Z,2653.753
2022-10-18T19:50:02.535Z,2344.793
2022-10-18T19:55:02.460Z,290.749
2022-10-18T20:00:03.479Z,293.293
2022-10-18T20:05:02.524Z,380.92900000000003
2022-10-18T20:10:02.690Z,409.721
2022-10-18T20:15:02.481Z,407.056
2022-10-18T20:20:02.494Z,385.345
2022-10-18T20:25:02.537Z,319.445
2022-10-18T20:30:03.707Z,301.637
2022-10-18T20:35:02.606Z,311.369
2022-10-18T20:40:02.740Z,964.3290000000001
2022-10-18T20:50:02.496Z,2604.4990000000003
2022-10-18T20:55:02.626Z,1757.826
2022-10-18T21:00:02.572Z,2619.774
2022-10-18T21:05:02.668Z,2544.9500000000003
2022-10-18T21:10:02.573Z,2627.983
2022-10-18T21:15:02.526Z,2220.817
2022-10-18T21:20:02.554Z,291.282
2022-10-18T21:25:02.520Z,239.487
2022-10-18T21:30:02.670Z,194.02700000000002
2022-10-18T21:35:02.706Z,314.002
2022-10-18T21:40:02.662Z,314.123
2022-10-18T21:45:02.688Z,367.568
2022-10-18T21:50:02.623Z,297.228
2022-10-18T21:55:02.571Z,233.774
2022-10-18T22:00:02.729Z,222.036
2022-10-18T22:05:02.593Z,209.252
2022-10-18T22:10:02.669Z,198.436
2022-10-18T22:15:02.620Z,190.618
2022-10-18T22:20:02.617Z,311.099
2022-10-18T22:25:02.675Z,1357.487
2022-10-18T22:30:02.748Z,2564.788
2022-10-18T22:35:02.639Z,2522.53
2022-10-18T22:40:02.682Z,2798.355
2022-10-18T22:45:02.689Z,934.499
2022-10-18T22:50:02.729Z,194.701
2022-10-18T22:55:02.715Z,191.92000000000002
2022-10-18T23:00:02.838Z,741.065
2022-10-18T23:05:02.633Z,7678.036
2022-10-18T23:10:02.732Z,7674.5960000000005
2022-10-18T23:15:02.658Z,7667.779
2022-10-18T23:20:02.630Z,7590.984
2022-10-18T23:25:02.760Z,7557.613
2022-10-18T23:30:02.655Z,8644.092
2022-10-18T23:35:02.663Z,9807.069
2022-10-18T23:40:02.794Z,9826.638
2022-10-18T23:45:02.736Z,8558.425
2022-10-18T23:50:02.769Z,7672.445
2022-10-18T23:55:02.833Z,7673.2300000000005
